Ana Sayfa
METAR-TAF:

METAR-TAF

Havaalanları :

Mexicali, Meksika

Enlem: 32-37-50N, Boylam: 115-14-30W, yükseklik: 22 m

Güncel hava durumu gözlemi

Rapor saat 01:44 UTC de 52 dakika önce yapıldı.
Rüzgar güneydoğudan 4 kt
Sıcaklık 16°C
Nem 63%
Basınç 1019 hPa
Görüş mesafesi: 16.1 km
20000 ft yükseklikte az bulutlu

METAR: MMML 220144Z 13004KT 10SM FEW200 16/09 A3008 RMK 8/002

Saat: 20:36 (02:36 UTC)

Tahmin

Rapor saat 17:07 UTC de 9 saat ve 29 dakika önce yapıldı.
Ayın 21'si saat 18 UTC'den ayın 22'si saat 18 UTC'ye kadar geçerli Tahmin
Rüzgar batı/kuzeybatıdan 8 kt
Görüş mesafesi: 10 km
4000 ft yükseklikte parçalı bulutlu
Ayın 22'si saat 0300 UTC'den
Rüzgar kuzeybatıdan 6 kt
Görüş mesafesi: 9.7 km
2000 ft yükseklikte parçalı çok bulutlu
Toz Pusu

TAF: MMML 211707Z 2118/2218 29008KT P6SM SCT040 FM220300 32006KT 6SM HZ BKN020

4.000'den fazla havaalanı için hava durumu gözlemleri ve tahminleri (METAR ve TAF raporları).

Kullanılabilir istasyonlar harita üzerinde sarı ve kırmızı noktalarla gösterilir.

İstasyonun adını görmek için fareyi noktanın üzerinde gezdirin.

Sonrasında hava gözlem ve tahminlerini görmek için tıklayın.

Haritayı değiştirmek için: yaklaştırmak için siyah artı işaretli yeşil düğmeye ve uzaklaştırmak için de eksi işaretli düğmeye hızla tıklayın; bitişik haritalar için yeşil okları kullanın.


METAR-TAF: